createdAt,value
2018-07-21T00:00:37.826Z,56.09
2018-07-21T00:01:37.845Z,57.05
2018-07-21T00:02:37.904Z,56.25
2018-07-21T00:03:37.877Z,58.57
2018-07-21T00:04:38.014Z,57.70
2018-07-21T00:05:37.974Z,57.03
2018-07-21T00:06:37.926Z,56.15
2018-07-21T00:07:37.949Z,55.19
2018-07-21T00:08:38.015Z,56.83
2018-07-21T00:09:37.990Z,56.63
2018-07-21T00:10:38.016Z,55.67
2018-07-21T00:11:38.030Z,55.57
2018-07-21T00:12:38.029Z,56.03
2018-07-21T00:13:38.101Z,58.54
2018-07-21T00:14:38.065Z,58.35
2018-07-21T00:15:38.079Z,58.64
2018-07-21T00:16:38.097Z,59.12
2018-07-21T00:17:38.117Z,60.57
2018-07-21T00:18:38.134Z,60.96
2018-07-21T00:19:38.153Z,59.60
2018-07-21T00:20:38.168Z,59.60
2018-07-21T00:21:38.187Z,60.96
2018-07-21T00:22:38.203Z,60.47
2018-07-21T00:23:38.217Z,60.76
2018-07-21T00:24:38.245Z,58.54
2018-07-21T00:25:38.253Z,57.67
2018-07-21T00:26:38.268Z,58.06
2018-07-21T00:27:38.288Z,59.12
2018-07-21T00:28:38.305Z,57.96
2018-07-21T00:29:38.336Z,57.03
2018-07-21T00:30:38.387Z,59.05
2018-07-21T00:31:38.430Z,56.99
2018-07-21T00:32:38.383Z,56.03
2018-07-21T00:33:38.390Z,55.26
2018-07-21T00:34:38.406Z,56.22
2018-07-21T00:35:38.483Z,55.83
2018-07-21T00:36:38.440Z,56.03
2018-07-21T00:37:38.467Z,56.80
2018-07-21T00:38:38.474Z,55.65
2018-07-21T00:39:38.506Z,56.22
2018-07-21T00:40:38.529Z,57.09
2018-07-21T00:41:38.529Z,57.29
2018-07-21T00:42:38.542Z,55.55
2018-07-21T00:43:38.561Z,55.35
2018-07-21T00:44:38.577Z,55.16
2018-07-21T00:45:38.594Z,55.07
2018-07-21T00:46:38.726Z,55.16
2018-07-21T00:47:38.626Z,54.97
2018-07-21T00:48:38.642Z,54.87
2018-07-21T00:49:38.675Z,55.26
2018-07-21T00:50:38.677Z,54.39
2018-07-21T00:51:38.694Z,54.97
2018-07-21T00:52:38.714Z,54.97
2018-07-21T00:53:38.743Z,54.49
2018-07-21T00:54:38.744Z,56.13
2018-07-21T00:55:38.761Z,55.07
2018-07-21T00:56:38.779Z,54.97
2018-07-21T00:57:38.797Z,55.07
2018-07-21T00:58:38.812Z,54.97
2018-07-21T00:59:38.827Z,55.93
2018-07-21T01:00:38.849Z,54.94
2018-07-21T01:01:38.871Z,55.55
2018-07-21T01:02:38.889Z,55.16
2018-07-21T01:03:38.905Z,55.45
2018-07-21T01:04:39.089Z,55.07
2018-07-21T01:05:38.932Z,55.33
2018-07-21T01:06:39.001Z,55.52
2018-07-21T01:07:38.968Z,56.10
2018-07-21T01:08:38.984Z,55.52
2018-07-21T01:09:39.003Z,54.94
2018-07-21T01:10:39.023Z,55.13
2018-07-21T01:11:39.041Z,55.71
2018-07-21T01:12:39.087Z,55.23
2018-07-21T01:13:39.081Z,55.33
2018-07-21T01:14:39.092Z,55.42
2018-07-21T01:15:39.114Z,55.52
2018-07-21T01:16:39.131Z,56.10
2018-07-21T01:17:39.145Z,56.10
2018-07-21T01:18:39.163Z,55.90
2018-07-21T01:19:39.365Z,56.96
2018-07-21T01:20:39.215Z,56.58
2018-07-21T01:21:39.219Z,56.96
2018-07-21T01:22:39.237Z,56.96
2018-07-21T01:23:39.258Z,56.39
2018-07-21T01:24:39.269Z,56.84
2018-07-21T01:25:39.293Z,57.64
2018-07-21T01:26:39.307Z,57.71
2018-07-21T01:27:39.324Z,57.32
2018-07-21T01:28:39.341Z,57.35
2018-07-21T01:29:39.360Z,58.51
2018-07-21T01:30:39.380Z,57.74
2018-07-21T01:31:39.397Z,57.81
2018-07-21T01:32:39.417Z,57.81
2018-07-21T01:33:39.437Z,57.81
2018-07-21T01:34:39.453Z,58.68
2018-07-21T01:35:39.469Z,59.16
2018-07-21T01:36:39.491Z,59.55
2018-07-21T01:37:39.511Z,59.35
2018-07-21T01:38:39.523Z,59.06
2018-07-21T01:39:39.544Z,59.83
2018-07-21T01:40:39.590Z,59.83
2018-07-21T01:41:39.579Z,59.45
2018-07-21T01:42:39.597Z,59.45
2018-07-21T01:43:39.614Z,59.06
2018-07-21T01:44:39.669Z,59.06
2018-07-21T01:45:39.653Z,59.83
2018-07-21T01:46:39.733Z,60.13
2018-07-21T01:47:39.718Z,59.74
2018-07-21T01:48:39.703Z,60.38
2018-07-21T01:49:39.721Z,60.41
2018-07-21T01:50:39.742Z,60.41
2018-07-21T01:51:39.759Z,60.61
2018-07-21T01:52:39.778Z,60.89
2018-07-21T01:53:39.796Z,60.71
2018-07-21T01:54:39.927Z,60.80
2018-07-21T01:55:39.834Z,61.38
2018-07-21T01:56:39.848Z,60.89
2018-07-21T01:57:39.866Z,60.22
2018-07-21T01:58:39.885Z,59.74
2018-07-21T01:59:39.904Z,60.31
2018-07-21T02:00:39.923Z,60.13
2018-07-21T02:01:39.941Z,60.22
2018-07-21T02:02:39.960Z,59.25
2018-07-21T02:03:39.977Z,59.93
2018-07-21T02:04:40.033Z,60.71
2018-07-21T02:05:40.011Z,60.25
2018-07-21T02:06:40.030Z,60.61
2018-07-21T02:07:40.075Z,60.89
2018-07-21T02:08:40.065Z,60.71
2018-07-21T02:09:40.083Z,60.41
2018-07-21T02:10:40.118Z,60.99
2018-07-21T02:11:40.120Z,60.71
2018-07-21T02:12:40.164Z,60.89
2018-07-21T02:13:40.174Z,61.09
2018-07-21T02:14:40.184Z,61.28
2018-07-21T02:15:40.208Z,60.89
2018-07-21T02:16:40.219Z,60.71
2018-07-21T02:17:40.227Z,60.80
2018-07-21T02:18:40.244Z,61.38
2018-07-21T02:19:40.264Z,60.71
2018-07-21T02:20:40.281Z,60.31
2018-07-21T02:21:40.328Z,61.57
2018-07-21T02:22:40.347Z,61.19
2018-07-21T02:26:40.404Z,60.61
2018-07-21T02:27:40.408Z,60.89
2018-07-21T02:28:40.424Z,60.99
2018-07-21T02:34:07.394Z,62.25
2018-07-21T02:35:07.376Z,62.63
2018-07-21T02:42:51.320Z,62.15
2018-07-21T02:43:51.335Z,61.57
2018-07-21T02:44:51.357Z,62.05
2018-07-21T02:45:51.382Z,62.25
2018-07-21T02:46:51.389Z,62.63
2018-07-21T02:47:51.406Z,62.44
2018-07-21T02:48:51.431Z,62.70
2018-07-21T02:49:51.442Z,62.99
2018-07-21T02:51:51.478Z,62.99
2018-07-21T02:52:51.494Z,62.89
2018-07-21T02:53:51.512Z,64.24
2018-07-21T02:54:51.533Z,63.95
2018-07-21T02:55:51.553Z,63.37
2018-07-21T02:56:51.593Z,63.28
2018-07-21T02:57:51.626Z,63.18
2018-07-21T02:58:51.604Z,63.85
2018-07-21T02:59:51.622Z,63.95
2018-07-21T03:00:51.658Z,63.95
2018-07-21T03:01:51.657Z,63.76
2018-07-21T03:02:51.703Z,64.34
2018-07-21T03:03:51.690Z,64.92
2018-07-21T03:04:51.709Z,63.57
2018-07-21T03:05:51.723Z,63.57
2018-07-21T03:06:51.745Z,64.15
2018-07-21T03:07:51.760Z,64.24
2018-07-21T03:08:51.784Z,64.24
2018-07-21T03:09:51.824Z,64.40
2018-07-21T03:10:54.438Z,64.89
2018-07-21T03:12:39.400Z,65.47
2018-07-21T03:13:39.417Z,65.69
2018-07-21T03:14:39.437Z,66.04
2018-07-21T03:15:39.473Z,65.40
2018-07-21T03:16:39.469Z,65.85
2018-07-21T03:17:39.486Z,66.33
2018-07-21T03:18:39.503Z,65.59
2018-07-21T03:19:39.538Z,65.69
2018-07-21T03:20:39.539Z,65.59
2018-07-21T03:21:39.551Z,65.30
2018-07-21T03:22:39.570Z,65.98
2018-07-21T03:23:39.587Z,65.95
2018-07-21T03:24:39.607Z,65.75
2018-07-21T03:25:39.622Z,65.66
2018-07-21T03:26:39.641Z,65.08
2018-07-21T03:27:39.654Z,65.95
2018-07-21T03:28:39.674Z,65.95
2018-07-21T03:29:39.688Z,66.62
2018-07-21T03:30:39.721Z,66.52
2018-07-21T03:31:39.722Z,65.75
2018-07-21T03:32:39.742Z,65.56
2018-07-21T03:33:39.754Z,65.56
2018-07-21T03:34:39.776Z,65.47
2018-07-21T03:35:39.814Z,65.56
2018-07-21T03:36:39.845Z,66.04
2018-07-21T03:37:39.886Z,66.52
2018-07-21T03:38:39.858Z,65.85
2018-07-21T03:39:39.858Z,66.04
2018-07-21T03:40:39.873Z,66.24
2018-07-21T03:41:39.899Z,66.33
2018-07-21T03:42:40.006Z,66.04
2018-07-21T03:43:39.936Z,66.24
2018-07-21T03:44:39.942Z,66.62
2018-07-21T03:45:39.957Z,66.62
2018-07-21T03:46:39.972Z,67.20
2018-07-21T03:47:39.990Z,67.30
2018-07-21T03:48:40.008Z,67.40
2018-07-21T03:49:40.022Z,67.40
2018-07-21T03:50:40.040Z,67.58
2018-07-21T03:51:40.063Z,68.07
2018-07-21T03:52:40.081Z,68.07
2018-07-21T03:53:40.088Z,68.35
2018-07-21T03:54:40.108Z,67.97
2018-07-21T03:55:40.164Z,67.78
2018-07-21T03:56:40.144Z,67.78
2018-07-21T03:57:40.178Z,68.07
2018-07-21T03:58:40.182Z,67.97
2018-07-21T03:59:40.190Z,67.40
2018-07-21T04:00:40.322Z,67.88
2018-07-21T04:01:40.225Z,67.97
2018-07-21T04:02:40.236Z,68.26
2018-07-21T04:03:40.254Z,68.16
2018-07-21T04:04:40.273Z,68.07
2018-07-21T04:05:40.288Z,67.97
2018-07-21T04:06:40.304Z,68.26
2018-07-21T04:07:40.327Z,68.16
2018-07-21T04:08:40.335Z,67.97
2018-07-21T04:09:40.354Z,68.45
2018-07-21T04:10:40.380Z,68.07
2018-07-21T04:11:40.388Z,68.16
2018-07-21T04:12:40.405Z,69.03
2018-07-21T04:13:40.421Z,68.55
2018-07-21T04:14:40.437Z,69.13
2018-07-21T04:15:40.451Z,68.45
2018-07-21T04:16:40.501Z,68.45
2018-07-21T04:17:40.489Z,69.38
2018-07-21T04:18:40.502Z,69.42
2018-07-21T04:19:40.520Z,69.42
2018-07-21T04:20:40.544Z,69.23
2018-07-21T04:21:40.574Z,70.28
2018-07-21T04:22:40.576Z,69.48
2018-07-21T04:23:40.600Z,69.57
2018-07-21T04:24:40.615Z,70.73
2018-07-21T04:25:40.615Z,70.67
2018-07-21T04:26:40.633Z,70.38
2018-07-21T04:27:40.658Z,69.96
2018-07-21T04:28:40.671Z,69.90
2018-07-21T04:30:40.750Z,69.51
2018-07-21T04:31:40.724Z,69.32
2018-07-21T04:32:40.737Z,69.80
2018-07-21T04:33:40.759Z,70.00
2018-07-21T04:34:40.766Z,70.38
2018-07-21T04:35:40.782Z,69.42
2018-07-21T04:36:41.158Z,70.19
2018-07-21T04:37:40.816Z,70.09
2018-07-21T04:38:40.831Z,70.38
2018-07-21T04:39:40.866Z,70.67
2018-07-21T04:40:40.863Z,69.80
2018-07-21T04:41:40.884Z,69.61
2018-07-21T04:42:40.912Z,70.48
2018-07-21T04:43:40.927Z,70.73
2018-07-21T04:44:40.930Z,70.76
2018-07-21T04:45:41.056Z,70.57
2018-07-21T04:46:42.362Z,70.44
2018-07-21T04:47:41.170Z,71.44
2018-07-21T04:48:41.046Z,70.44
2018-07-21T04:49:41.289Z,70.57
2018-07-21T04:50:41.107Z,70.54
2018-07-21T04:51:41.045Z,70.19
2018-07-21T04:52:41.065Z,70.35
2018-07-21T04:53:41.092Z,70.57
2018-07-21T04:54:41.098Z,70.35
2018-07-21T04:55:41.111Z,70.54
2018-07-21T04:56:41.135Z,71.25
2018-07-21T04:57:41.144Z,71.73
2018-07-21T04:58:41.159Z,71.64
2018-07-21T04:59:41.188Z,72.18
2018-07-21T05:00:41.250Z,71.98
2018-07-21T05:01:41.217Z,71.79
2018-07-21T05:02:41.226Z,71.54
2018-07-21T05:03:41.244Z,73.37
2018-07-21T05:04:41.264Z,72.41
2018-07-21T05:05:41.280Z,72.69
2018-07-21T05:06:41.297Z,71.54
2018-07-21T05:07:41.311Z,72.50
2018-07-21T05:08:41.327Z,72.75
2018-07-21T05:09:41.646Z,73.08
2018-07-21T05:10:41.366Z,73.47
2018-07-21T05:11:41.404Z,73.37
2018-07-21T05:12:41.402Z,72.79
2018-07-21T05:13:41.433Z,73.37
2018-07-21T05:14:41.427Z,72.50
2018-07-21T05:15:41.451Z,73.37
2018-07-21T05:16:41.460Z,72.21
2018-07-21T05:17:41.473Z,72.79
2018-07-21T05:18:41.492Z,72.99
2018-07-21T05:19:41.507Z,72.89
2018-07-21T05:20:41.574Z,72.99
2018-07-21T05:21:42.199Z,72.50
2018-07-21T05:22:41.560Z,72.21
2018-07-21T05:23:41.617Z,71.54
2018-07-21T05:24:41.591Z,72.21
2018-07-21T05:25:41.608Z,72.21
2018-07-21T05:26:41.623Z,72.21
2018-07-21T05:27:41.640Z,72.41
2018-07-21T05:28:41.657Z,71.73
2018-07-21T05:29:41.672Z,72.21
2018-07-21T05:30:41.689Z,72.79
2018-07-21T05:31:41.715Z,72.21
2018-07-21T05:32:41.753Z,71.73
2018-07-21T05:33:41.776Z,72.69
2018-07-21T05:34:41.757Z,71.64
2018-07-21T05:35:41.777Z,72.79
2018-07-21T05:36:41.789Z,71.77
2018-07-21T05:37:41.807Z,71.86
2018-07-21T05:38:41.834Z,72.25
2018-07-21T05:39:41.841Z,71.19
2018-07-21T05:40:41.880Z,71.58
2018-07-21T05:41:41.886Z,70.70
2018-07-21T05:42:41.934Z,71.19
2018-07-21T05:43:41.907Z,70.80
2018-07-21T05:44:41.938Z,70.80
2018-07-21T05:45:42.020Z,70.42
2018-07-21T05:46:41.961Z,71.09
2018-07-21T05:47:41.972Z,70.70
2018-07-21T05:48:42.002Z,71.58
2018-07-21T05:49:42.014Z,71.48
2018-07-21T05:50:42.036Z,70.80
2018-07-21T05:51:42.051Z,70.90
2018-07-21T05:52:42.137Z,70.61
2018-07-21T05:53:42.080Z,70.70
2018-07-21T05:54:42.121Z,70.80
2018-07-21T05:55:42.108Z,71.19
2018-07-21T05:56:42.136Z,71.58
2018-07-21T05:57:42.144Z,70.36
2018-07-21T05:58:42.154Z,70.06
2018-07-21T05:59:42.173Z,69.39
2018-07-21T06:00:42.198Z,69.55
2018-07-21T06:01:42.227Z,70.26
2018-07-21T06:02:42.286Z,70.36
2018-07-21T06:03:42.257Z,69.55
2018-07-21T06:04:42.263Z,69.45
2018-07-21T06:05:42.274Z,69.87
2018-07-21T06:06:42.291Z,68.77
2018-07-21T06:07:42.322Z,69.20
2018-07-21T06:08:42.572Z,69.84
2018-07-21T06:09:42.402Z,69.20
2018-07-21T06:10:42.389Z,69.78
2018-07-21T06:11:42.365Z,69.00
2018-07-21T06:12:42.382Z,69.58
2018-07-21T06:13:42.397Z,68.87
2018-07-21T06:14:42.415Z,69.07
2018-07-21T06:15:42.432Z,68.62
2018-07-21T06:16:42.457Z,68.49
2018-07-21T06:17:42.505Z,68.68
2018-07-21T06:18:42.588Z,70.32
2018-07-21T06:19:42.832Z,70.51
2018-07-21T06:20:42.533Z,70.80
2018-07-21T06:21:42.536Z,69.84
2018-07-21T06:22:42.551Z,69.45
2018-07-21T06:23:42.586Z,68.97
2018-07-21T06:24:42.605Z,69.07
2018-07-21T06:26:42.656Z,68.10
2018-07-21T06:27:42.659Z,68.10
2018-07-21T06:28:42.669Z,68.59
2018-07-21T06:29:42.681Z,69.10
2018-07-21T06:30:42.700Z,68.19
2018-07-21T06:31:42.719Z,66.66
2018-07-21T06:32:42.775Z,69.07
2018-07-21T06:33:42.732Z,68.01
2018-07-21T06:34:42.749Z,68.77
2018-07-21T06:35:42.766Z,68.39
2018-07-21T06:36:42.790Z,68.39
2018-07-21T06:37:42.806Z,69.07
2018-07-21T06:38:42.920Z,66.85
2018-07-21T06:39:42.883Z,67.33
2018-07-21T06:40:43.096Z,67.33
2018-07-21T06:41:42.918Z,66.85
2018-07-21T06:42:42.884Z,66.75
2018-07-21T06:43:42.973Z,66.56
2018-07-21T06:44:42.920Z,66.59
2018-07-21T06:45:42.948Z,65.88
2018-07-21T06:46:42.966Z,66.56
2018-07-21T06:47:43.002Z,67.52
2018-07-21T06:48:43.360Z,66.56
2018-07-21T06:49:43.093Z,65.69
2018-07-21T06:50:43.127Z,65.98
2018-07-21T06:51:43.089Z,66.08
2018-07-21T06:52:43.481Z,66.75
2018-07-21T06:53:43.072Z,67.36
2018-07-21T06:54:43.081Z,67.04
2018-07-21T06:55:43.098Z,66.17
2018-07-21T06:56:43.168Z,66.85
2018-07-21T06:57:43.132Z,68.04
2018-07-21T06:58:43.680Z,65.91
2018-07-21T06:59:43.181Z,67.46
2018-07-21T07:00:43.183Z,65.24
2018-07-21T07:01:43.333Z,64.86
2018-07-21T07:02:43.238Z,64.08
2018-07-21T07:03:43.264Z,64.76
2018-07-21T07:04:43.290Z,66.01
2018-07-21T07:05:43.288Z,64.76
2018-07-21T07:06:43.319Z,64.08
2018-07-21T07:07:43.303Z,64.18
2018-07-21T07:08:43.343Z,66.11
2018-07-21T07:09:43.329Z,64.66
2018-07-21T07:10:43.348Z,64.95
2018-07-21T07:11:43.365Z,64.18
2018-07-21T07:12:43.381Z,64.08
2018-07-21T07:13:43.430Z,64.66
2018-07-21T07:14:43.415Z,64.18
2018-07-21T07:15:43.444Z,65.05
2018-07-21T07:16:43.450Z,64.76
2018-07-21T07:17:43.637Z,63.79
2018-07-21T07:18:43.486Z,64.47
2018-07-21T07:19:43.502Z,64.18
2018-07-21T07:20:43.519Z,64.28
2018-07-21T07:21:43.600Z,64.18
2018-07-21T07:22:43.671Z,64.18
2018-07-21T07:23:43.566Z,64.18
2018-07-21T07:24:43.581Z,64.66
2018-07-21T07:25:43.602Z,64.76
2018-07-21T07:26:43.613Z,64.95
2018-07-21T07:27:43.629Z,64.28
2018-07-21T07:28:43.652Z,64.37
2018-07-21T07:29:43.667Z,64.47
2018-07-21T07:30:43.681Z,65.24
2018-07-21T07:31:43.716Z,64.40
2018-07-21T07:32:43.715Z,63.63
2018-07-21T07:33:43.731Z,64.50
2018-07-21T07:34:43.747Z,64.86
2018-07-21T07:35:43.764Z,65.05
2018-07-21T07:36:43.782Z,64.98
2018-07-21T07:37:43.798Z,64.86
2018-07-21T07:38:43.819Z,64.11
2018-07-21T07:39:43.834Z,64.37
2018-07-21T07:40:43.851Z,63.82
2018-07-21T07:41:43.867Z,62.82
2018-07-21T07:42:43.880Z,63.70
2018-07-21T07:43:43.898Z,63.21
2018-07-21T07:44:43.915Z,62.15
2018-07-21T07:45:43.931Z,63.73
2018-07-21T07:46:43.952Z,63.92
2018-07-21T07:47:43.966Z,64.28
2018-07-21T07:48:43.984Z,64.08
2018-07-21T07:49:43.997Z,64.37
2018-07-21T07:50:44.015Z,64.56
2018-07-21T07:51:44.032Z,64.76
2018-07-21T07:52:44.049Z,65.37
2018-07-21T07:53:44.071Z,64.69
2018-07-21T07:54:44.083Z,66.20
2018-07-21T07:55:44.099Z,65.75
2018-07-21T07:56:44.139Z,65.66
2018-07-21T07:57:44.134Z,66.05
2018-07-21T07:58:44.170Z,65.56
2018-07-21T07:59:44.172Z,64.98
2018-07-21T08:00:44.183Z,64.98
2018-07-21T08:01:44.197Z,64.79
2018-07-21T08:02:44.214Z,64.50
2018-07-21T08:03:44.240Z,64.89
2018-07-21T08:04:44.253Z,65.08
2018-07-21T08:05:44.264Z,64.89
2018-07-21T08:06:44.287Z,65.75
2018-07-21T08:07:44.298Z,64.98
2018-07-21T08:08:44.316Z,64.59
2018-07-21T08:09:44.362Z,64.50
2018-07-21T08:10:44.448Z,64.43
2018-07-21T08:11:44.370Z,64.14
2018-07-21T08:12:44.555Z,64.05
2018-07-21T08:13:44.461Z,64.82
2018-07-21T08:14:44.537Z,64.43
2018-07-21T08:15:44.433Z,64.43
2018-07-21T08:16:44.472Z,64.43
2018-07-21T08:17:44.468Z,63.85
2018-07-21T08:18:44.489Z,64.24
2018-07-21T08:19:44.709Z,64.85
2018-07-21T08:20:44.526Z,64.95
2018-07-21T08:21:44.536Z,65.34
2018-07-21T08:22:44.553Z,63.60
2018-07-21T08:23:44.571Z,63.40
2018-07-21T08:24:44.593Z,63.02
2018-07-21T08:25:44.615Z,63.31
2018-07-21T08:26:44.622Z,65.82
2018-07-21T08:27:44.640Z,65.82
2018-07-21T08:28:44.656Z,66.01
2018-07-21T08:29:44.690Z,65.24
2018-07-21T08:30:44.693Z,64.56
2018-07-21T08:31:44.709Z,62.92
2018-07-21T08:32:44.727Z,63.31
2018-07-21T08:33:44.743Z,62.92
2018-07-21T08:34:44.815Z,63.31
2018-07-21T08:35:44.774Z,62.82
2018-07-21T08:36:44.795Z,63.43
2018-07-21T08:37:44.822Z,62.85
2018-07-21T08:38:44.877Z,61.95
2018-07-21T08:39:44.847Z,62.18
2018-07-21T08:40:44.865Z,62.18
2018-07-21T08:41:44.891Z,61.60
2018-07-21T08:42:44.921Z,62.44
2018-07-21T08:43:44.919Z,62.44
2018-07-21T08:44:44.934Z,63.31
2018-07-21T08:45:44.952Z,61.86
2018-07-21T08:46:44.970Z,61.66
2018-07-21T08:47:44.985Z,62.08
2018-07-21T08:48:45.003Z,62.47
2018-07-21T08:49:45.069Z,61.33
2018-07-21T08:50:45.043Z,61.24
2018-07-21T08:51:45.062Z,60.75
2018-07-21T08:52:45.074Z,60.75
2018-07-21T08:53:45.089Z,61.11
2018-07-21T08:55:45.181Z,62.21
2018-07-21T08:56:45.149Z,61.92
2018-07-21T08:57:45.161Z,61.05
2018-07-21T08:58:45.189Z,61.92
2018-07-21T08:59:45.198Z,61.63
2018-07-21T09:00:45.214Z,62.01
2018-07-21T09:01:45.235Z,60.95
2018-07-21T09:02:45.248Z,60.75
2018-07-21T09:03:45.274Z,60.37
2018-07-21T09:04:45.291Z,59.50
2018-07-21T09:05:45.389Z,60.66
2018-07-21T09:06:45.323Z,60.75
2018-07-21T09:07:45.337Z,59.69
2018-07-21T09:08:45.366Z,59.69
2018-07-21T09:09:45.373Z,60.47
2018-07-21T09:10:45.393Z,59.89
2018-07-21T09:11:45.426Z,60.57
2018-07-21T09:12:45.436Z,60.75
2018-07-21T09:13:45.453Z,59.89
2018-07-21T09:14:45.465Z,58.75
2018-07-21T09:15:45.532Z,58.27
2018-07-21T09:16:45.557Z,58.63
2018-07-21T09:17:45.536Z,58.63
2018-07-21T09:18:45.533Z,58.72
2018-07-21T09:19:45.551Z,59.69
2018-07-21T09:20:45.568Z,59.91
2018-07-21T09:21:45.586Z,59.82
2018-07-21T09:22:45.603Z,58.95
2018-07-21T09:23:45.623Z,59.53
2018-07-21T09:24:45.641Z,59.63
2018-07-21T09:25:45.656Z,60.01
2018-07-21T09:26:45.676Z,59.91
2018-07-21T09:27:45.722Z,60.01
2018-07-21T09:28:45.767Z,59.46
2018-07-21T09:29:45.728Z,59.75
2018-07-21T09:30:45.744Z,60.33
2018-07-21T09:31:45.772Z,58.78
2018-07-21T09:32:45.823Z,59.36
2018-07-21T09:33:45.811Z,59.27
2018-07-21T09:34:45.828Z,59.66
2018-07-21T09:35:45.836Z,59.94
2018-07-21T09:36:45.852Z,58.49
2018-07-21T09:37:45.870Z,59.07
2018-07-21T09:38:45.889Z,59.36
2018-07-21T09:39:45.907Z,58.78
2018-07-21T09:40:45.927Z,59.56
2018-07-21T09:41:46.068Z,59.07
2018-07-21T09:42:45.967Z,59.66
2018-07-21T09:43:45.980Z,60.52
2018-07-21T09:44:45.994Z,60.04
2018-07-21T09:45:46.018Z,60.52
2018-07-21T09:46:46.035Z,59.82
2018-07-21T09:47:46.072Z,59.33
2018-07-21T09:48:46.075Z,59.82
2018-07-21T09:49:46.088Z,61.08
2018-07-21T09:50:46.114Z,60.50
2018-07-21T09:51:46.123Z,59.27
2018-07-21T09:52:46.173Z,58.98
2018-07-21T09:53:46.164Z,59.66
2018-07-21T09:54:46.199Z,60.33
2018-07-21T09:55:46.284Z,58.39
2018-07-21T09:56:46.214Z,59.46
2018-07-21T09:57:46.231Z,57.53
2018-07-21T09:58:46.249Z,56.56
2018-07-21T09:59:46.267Z,56.16
2018-07-21T10:00:46.285Z,56.56
2018-07-21T10:01:46.353Z,58.30
2018-07-21T10:02:46.334Z,57.81
2018-07-21T10:03:46.341Z,57.33
2018-07-21T10:04:46.358Z,57.23
2018-07-21T10:05:46.373Z,57.84
2018-07-21T10:06:46.391Z,56.39
2018-07-21T10:07:46.410Z,56.39
2018-07-21T10:08:46.438Z,55.22
2018-07-21T10:09:46.478Z,55.22
2018-07-21T10:10:46.466Z,55.04
2018-07-21T10:11:46.507Z,53.39
2018-07-21T10:12:46.500Z,54.35
2018-07-21T10:13:46.515Z,54.35
2018-07-21T10:14:46.535Z,54.64
2018-07-21T10:15:46.555Z,54.28
2018-07-21T10:16:46.572Z,55.04
2018-07-21T10:17:46.589Z,53.87
2018-07-21T10:18:46.611Z,54.77
2018-07-21T10:19:46.628Z,54.58
2018-07-21T10:20:46.654Z,54.48
2018-07-21T10:21:46.713Z,53.80
2018-07-21T10:22:46.689Z,52.93
2018-07-21T10:23:46.700Z,52.95
2018-07-21T10:24:47.119Z,53.15
2018-07-21T10:25:46.733Z,51.79
2018-07-21T10:26:46.757Z,51.53
2018-07-21T10:27:46.776Z,51.14
2018-07-21T10:28:46.789Z,50.04
2018-07-21T10:29:46.810Z,50.24
2018-07-21T10:30:46.826Z,50.53
2018-07-21T10:31:46.847Z,50.14
2018-07-21T10:32:46.862Z,50.14
2018-07-21T10:33:46.884Z,50.24
2018-07-21T10:34:46.908Z,51.33
2018-07-21T10:35:46.927Z,50.94
2018-07-21T10:36:46.949Z,52.88
2018-07-21T10:37:46.956Z,51.43
2018-07-21T10:38:46.977Z,50.77
2018-07-21T10:39:46.991Z,50.58
2018-07-21T10:40:47.012Z,48.05
2018-07-21T10:41:47.033Z,47.98
2018-07-21T10:42:47.049Z,48.85
2018-07-21T10:43:47.102Z,49.34
2018-07-21T10:44:47.086Z,47.88
2018-07-21T10:45:47.147Z,48.08
2018-07-21T10:46:47.127Z,49.34
2018-07-21T10:47:47.145Z,48.75
2018-07-21T10:48:47.225Z,48.08
2018-07-21T10:49:47.192Z,48.57
2018-07-21T10:50:47.231Z,48.27
2018-07-21T10:51:47.220Z,48.75
2018-07-21T10:52:47.237Z,48.08
2018-07-21T10:53:47.265Z,47.40
2018-07-21T10:54:47.280Z,47.40
2018-07-21T10:55:47.295Z,47.69
2018-07-21T10:56:47.322Z,47.59
2018-07-21T10:57:47.331Z,46.81
2018-07-21T10:58:47.351Z,47.20
2018-07-21T10:59:47.370Z,47.08
2018-07-21T11:00:47.408Z,48.25
2018-07-21T11:01:47.409Z,48.47
2018-07-21T11:02:47.437Z,48.27
2018-07-21T11:03:47.471Z,49.34
2018-07-21T11:04:47.463Z,48.75
2018-07-21T11:05:47.483Z,48.27
2018-07-21T11:06:47.501Z,48.08
2018-07-21T11:07:47.521Z,47.01
2018-07-21T11:08:47.555Z,47.01
2018-07-21T11:09:47.575Z,48.10
2018-07-21T11:10:47.589Z,48.85
2018-07-21T11:11:47.602Z,49.24
2018-07-21T11:12:47.620Z,50.02
2018-07-21T11:13:47.649Z,48.30
2018-07-21T11:14:47.656Z,48.97
2018-07-21T11:15:47.679Z,49.27
2018-07-21T11:16:47.694Z,48.88
2018-07-21T11:17:47.716Z,48.88
2018-07-21T11:18:47.736Z,47.03
2018-07-21T11:19:48.055Z,49.17
2018-07-21T11:20:47.774Z,49.37
2018-07-21T11:21:47.797Z,49.76
2018-07-21T11:22:47.809Z,49.29
2018-07-21T11:23:48.296Z,48.51
2018-07-21T11:24:47.848Z,49.39
2018-07-21T11:25:47.868Z,47.08
2018-07-21T11:26:47.886Z,47.74
2018-07-21T11:27:47.907Z,47.25
2018-07-21T11:28:47.923Z,47.54
2018-07-21T11:29:47.941Z,48.13
2018-07-21T11:30:47.965Z,47.66
2018-07-21T11:31:47.989Z,48.25
2018-07-21T11:32:48.006Z,47.56
2018-07-21T11:33:48.021Z,47.37
2018-07-21T11:34:48.079Z,46.71
2018-07-21T11:35:48.184Z,45.81
2018-07-21T11:36:48.082Z,46.59
2018-07-21T11:37:48.102Z,46.59
2018-07-21T11:38:48.121Z,47.47
2018-07-21T11:39:48.139Z,46.69
2018-07-21T11:40:48.174Z,49.32
2018-07-21T11:41:48.177Z,48.83
2018-07-21T11:42:48.197Z,46.61
2018-07-21T11:43:48.222Z,46.32
2018-07-21T11:44:48.241Z,46.32
2018-07-21T11:45:48.258Z,46.71
2018-07-21T11:46:48.277Z,47.30
2018-07-21T11:47:48.293Z,47.61
2018-07-21T11:48:48.312Z,47.03
2018-07-21T11:49:48.333Z,46.15
2018-07-21T11:50:48.602Z,46.81
2018-07-21T11:51:48.368Z,46.78
2018-07-21T11:52:48.400Z,47.56
2018-07-21T11:53:48.431Z,48.73
2018-07-21T11:54:48.461Z,47.56
2018-07-21T11:55:48.451Z,46.88
2018-07-21T11:56:48.532Z,47.20
2018-07-21T11:57:48.488Z,47.30
2018-07-21T11:58:48.507Z,46.42
2018-07-21T11:59:48.527Z,46.78
2018-07-21T12:00:48.548Z,47.27
2018-07-21T12:01:48.612Z,47.47
2018-07-21T12:02:48.597Z,47.37
2018-07-21T12:03:48.605Z,47.78
2018-07-21T12:04:48.627Z,46.73
2018-07-21T12:05:48.652Z,46.64
2018-07-21T12:06:48.669Z,45.47
2018-07-21T12:07:48.706Z,45.47
2018-07-21T12:08:48.713Z,45.64
2018-07-21T12:09:48.760Z,46.81
2018-07-21T12:10:48.750Z,45.74
2018-07-21T12:11:48.783Z,47.69
2018-07-21T12:12:48.991Z,47.78
2018-07-21T12:13:48.828Z,45.95
2018-07-21T12:14:48.823Z,45.67
2018-07-21T12:15:48.845Z,46.64
2018-07-21T12:16:48.863Z,46.76
2018-07-21T12:17:48.882Z,45.10
2018-07-21T12:18:48.902Z,45.12
2018-07-21T12:19:48.925Z,45.22
2018-07-21T12:20:48.944Z,46.47
2018-07-21T12:21:48.962Z,46.56
2018-07-21T12:22:48.984Z,44.93
2018-07-21T12:23:49.034Z,43.57
2018-07-21T12:24:49.025Z,44.85
2018-07-21T12:25:49.059Z,43.39
2018-07-21T12:26:49.063Z,47.29
2018-07-21T12:27:49.081Z,44.38
2018-07-21T12:28:49.105Z,43.10
2018-07-21T12:29:49.127Z,43.10
2018-07-21T12:30:49.142Z,42.83
2018-07-21T12:31:49.163Z,43.12
2018-07-21T12:32:49.182Z,46.92
2018-07-21T12:33:49.201Z,42.73
2018-07-21T12:34:49.236Z,44.38
2018-07-21T12:35:49.244Z,43.73
2018-07-21T12:36:49.262Z,42.55
2018-07-21T12:37:49.278Z,43.73
2018-07-21T12:38:49.297Z,42.44
2018-07-21T12:39:49.319Z,42.34
2018-07-21T12:40:49.342Z,43.02
2018-07-21T12:41:49.358Z,42.93
2018-07-21T12:42:49.380Z,42.44
2018-07-21T12:43:49.405Z,43.71
2018-07-21T12:44:49.482Z,43.14
2018-07-21T12:45:49.441Z,42.36
2018-07-21T12:46:49.477Z,43.73
2018-07-21T12:47:49.493Z,42.73
2018-07-21T12:48:49.505Z,44.09
2018-07-21T12:49:49.539Z,45.17
2018-07-21T12:50:49.553Z,43.82
2018-07-21T12:51:49.567Z,42.75
2018-07-21T12:52:49.589Z,43.95
2018-07-21T12:53:49.608Z,41.80
2018-07-21T12:54:49.630Z,42.60
2018-07-21T12:55:49.658Z,42.79
2018-07-21T12:56:49.701Z,40.27
2018-07-21T12:57:49.704Z,41.54
2018-07-21T12:58:49.719Z,40.72
2018-07-21T12:59:49.743Z,42.79
2018-07-21T13:00:49.766Z,40.94
2018-07-21T13:01:49.788Z,40.92
2018-07-21T13:02:49.811Z,42.58
2018-07-21T13:03:49.839Z,41.99
2018-07-21T13:04:49.863Z,43.59
2018-07-21T13:05:49.881Z,41.25
2018-07-21T13:06:49.907Z,41.56
2018-07-21T13:07:49.932Z,41.07
2018-07-21T13:08:49.956Z,42.44
2018-07-21T13:09:50.048Z,40.80
2018-07-21T13:10:50.007Z,39.90
2018-07-21T13:11:50.028Z,39.22